Time;durP1;ratioP1;P1;durP2;ratioP2;P2;SDS_P1;SDS_P2;PMS_P1;PMS_P2;Temp;Humidity;BMP_temperature;BMP_pressure;BME280_temperature;BME280_humidity;BME280_pressure;Samples;Min_cycle;Max_cycle;Signal;HPM_P1;HPM_P2
2021/07/05 00:02:08;;;;;;;10.18;6.95;;;;;;;21.60;57.38;99226.59;5029600;28;20033;-75
2021/07/05 00:04:34;;;;;;;9.52;6.68;;;;;;;21.71;56.07;99219.50;5032020;28;20038;-75
2021/07/05 00:07:00;;;;;;;10.77;6.18;;;;;;;21.87;55.90;99222.19;5037930;28;20029;-75
2021/07/05 00:09:25;;;;;;;11.43;7.00;;;;;;;21.82;56.01;99222.09;5034223;28;20041;-75
2021/07/05 00:11:51;;;;;;;14.45;6.57;;;;;;;21.76;56.12;99219.56;5030015;28;20030;-75
2021/07/05 00:14:16;;;;;;;11.38;5.85;;;;;;;21.88;55.37;99207.66;5042345;28;20111;-75
2021/07/05 00:16:42;;;;;;;8.52;5.40;;;;;;;22.12;54.48;99205.56;5032346;28;20034;-75
2021/07/05 00:19:07;;;;;;;10.85;6.75;;;;;;;22.18;54.59;99203.75;5030411;28;20033;-73
2021/07/05 00:21:33;;;;;;;6.45;5.45;;;;;;;22.43;53.51;99205.94;5040488;28;20061;-73
2021/07/05 00:23:58;;;;;;;8.02;5.72;;;;;;;22.51;52.80;99197.41;5037413;28;20030;-73
2021/07/05 00:26:24;;;;;;;7.55;6.15;;;;;;;22.38;52.99;99185.13;5030350;28;20040;-73
2021/07/05 00:28:49;;;;;;;8.35;5.82;;;;;;;22.55;52.63;99198.53;5031815;28;20056;-75
2021/07/05 00:31:14;;;;;;;9.40;5.47;;;;;;;22.78;51.87;99192.00;5041232;28;20033;-75
2021/07/05 00:33:40;;;;;;;8.90;6.00;;;;;;;22.68;52.26;99198.13;5042319;28;20105;-75
2021/07/05 00:36:05;;;;;;;9.45;6.57;;;;;;;22.71;51.83;99194.09;5042298;28;20030;-75
2021/07/05 00:38:31;;;;;;;8.70;6.68;;;;;;;22.65;52.04;99200.50;5029964;28;20299;-75
2021/07/05 00:40:57;;;;;;;7.90;6.65;;;;;;;22.68;51.73;99202.72;5039807;28;20029;-75
2021/07/05 00:43:22;;;;;;;7.20;6.13;;;;;;;22.45;52.25;99206.50;5036888;28;20092;-75
2021/07/05 00:45:48;;;;;;;11.32;7.10;;;;;;;22.43;52.72;99203.25;5040323;28;20041;-75
2021/07/05 00:48:14;;;;;;;9.65;6.63;;;;;;;22.31;52.97;99200.69;5029458;28;20018;-75
2021/07/05 00:50:40;;;;;;;6.82;5.85;;;;;;;22.08;53.58;99204.44;5032921;28;20109;-75
2021/07/05 00:53:05;;;;;;;9.68;6.53;;;;;;;22.20;53.37;99213.22;5041318;28;20047;-75
2021/07/05 00:55:32;;;;;;;8.65;7.10;;;;;;;22.23;53.25;99212.72;5034052;28;20029;-75
2021/07/05 00:57:59;;;;;;;8.57;6.93;;;;;;;22.10;53.34;99207.69;5035442;28;20078;-75
2021/07/05 01:00:27;;;;;;;6.97;6.20;;;;;;;21.99;53.35;99198.63;5044181;28;20214;-75
2021/07/05 01:02:54;;;;;;;13.60;7.15;;;;;;;21.89;53.33;99205.78;5042669;28;20052;-75
2021/07/05 01:05:21;;;;;;;9.55;6.75;;;;;;;21.86;53.37;99211.66;5039132;28;20218;-75
2021/07/05 01:07:47;;;;;;;13.18;7.20;;;;;;;21.86;53.51;99214.34;5035364;28;20108;-75
2021/07/05 01:10:15;;;;;;;7.35;6.30;;;;;;;22.04;52.89;99210.56;5033345;28;20061;-73
2021/07/05 01:12:40;;;;;;;7.82;7.03;;;;;;;21.99;52.80;99205.91;5039266;28;20270;-73
2021/07/05 01:15:12;;;;;;;9.40;6.80;;;;;;;22.11;52.21;99208.50;5030251;28;20081;-73
2021/07/05 01:17:38;;;;;;;10.57;6.95;;;;;;;21.92;52.42;99207.97;5035833;28;20100;-73
2021/07/05 01:20:05;;;;;;;8.30;6.43;;;;;;;21.78;52.67;99209.34;5035031;28;20413;-75
2021/07/05 01:22:30;;;;;;;12.70;6.20;;;;;;;21.65;53.02;99197.84;5035055;28;20037;-75
2021/07/05 01:24:56;;;;;;;7.47;6.50;;;;;;;21.65;53.11;99203.25;5033313;28;20345;-75
2021/07/05 01:27:23;;;;;;;8.02;5.88;;;;;;;21.78;52.53;99209.34;5039444;28;20096;-75
2021/07/05 01:29:49;;;;;;;9.75;6.28;;;;;;;21.84;52.56;99205.66;5029911;28;20558;-75
2021/07/05 01:32:15;;;;;;;10.32;6.03;;;;;;;21.98;51.80;99198.88;5036043;28;20079;-75
2021/07/05 01:34:41;;;;;;;8.38;6.40;;;;;;;22.02;51.50;99205.41;5029555;28;20097;-75
2021/07/05 01:37:07;;;;;;;7.10;5.80;;;;;;;21.96;51.26;99201.00;5036577;28;20025;-75
2021/07/05 01:39:33;;;;;;;8.95;5.72;;;;;;;21.90;51.37;99208.22;5031692;28;20018;-75
2021/07/05 01:41:59;;;;;;;8.60;5.50;;;;;;;21.96;51.03;99204.53;5027467;28;20042;-75
2021/07/05 01:44:24;;;;;;;7.47;5.93;;;;;;;21.83;51.17;99204.03;5028728;28;20032;-75
2021/07/05 01:46:50;;;;;;;8.98;5.80;;;;;;;21.79;51.46;99209.09;5030788;28;20034;-75
2021/07/05 01:49:16;;;;;;;7.95;5.32;;;;;;;21.63;51.73;99199.16;5037914;28;20608;-75
2021/07/05 01:51:41;;;;;;;7.03;6.10;;;;;;;21.80;51.18;99202.66;5036267;28;20025;-76
2021/07/05 01:54:07;;;;;;;10.98;5.53;;;;;;;21.63;51.80;99209.94;5034080;28;20026;-76
2021/07/05 01:56:33;;;;;;;6.00;5.38;;;;;;;21.57;51.70;99206.38;5031528;28;20034;-75
2021/07/05 01:58:59;;;;;;;8.18;5.82;;;;;;;21.59;51.86;99212.31;5034424;28;20219;-75
2021/07/05 02:01:25;;;;;;;7.95;5.53;;;;;;;21.53;52.70;99207.09;5030217;28;20230;-75
2021/07/05 02:03:50;;;;;;;7.10;6.00;;;;;;;21.47;53.07;99206.19;5038411;28;20049;-74
2021/07/05 02:06:16;;;;;;;7.72;5.47;;;;;;;21.65;52.71;99203.25;5046774;28;20025;-74
2021/07/05 02:08:42;;;;;;;11.27;6.10;;;;;;;21.60;52.67;99203.16;5032462;28;20113;-74
2021/07/05 02:11:08;;;;;;;5.95;5.35;;;;;;;21.59;51.95;99206.13;5040718;28;20311;-74
2021/07/05 02:13:37;;;;;;;6.10;5.43;;;;;;;21.81;51.54;99201.59;5050719;28;20057;-74
2021/07/05 02:16:03;;;;;;;7.65;6.10;;;;;;;21.79;51.77;99205.59;5032169;28;20338;-75
2021/07/05 02:18:30;;;;;;;7.78;5.80;;;;;;;21.75;52.07;99207.16;5036678;28;20036;-75
2021/07/05 02:21:03;;;;;;;6.78;5.93;;;;;;;21.64;52.12;99204.31;5039471;28;20093;-75
2021/07/05 02:23:30;;;;;;;8.97;6.10;;;;;;;21.67;52.31;99205.69;5038833;28;20037;-76
2021/07/05 02:25:55;;;;;;;9.65;6.20;;;;;;;21.52;52.81;99197.38;5031704;28;20028;-75
2021/07/05 02:28:29;;;;;;;8.40;6.55;;;;;;;21.66;52.55;99202.19;5034663;28;20037;-75
2021/07/05 02:30:55;;;;;;;9.38;6.07;;;;;;;21.68;52.34;99197.38;5033618;28;20039;-75
2021/07/05 02:33:24;;;;;;;10.48;6.57;;;;;;;21.83;51.98;99198.66;5029106;28;20029;-75
2021/07/05 02:35:51;;;;;;;10.05;6.68;;;;;;;21.87;52.27;99194.41;5034643;28;20072;-75
2021/07/05 02:38:17;;;;;;;11.35;6.35;;;;;;;21.92;51.78;99200.69;5035648;28;20036;-75
2021/07/05 02:40:45;;;;;;;8.38;6.35;;;;;;;22.01;52.31;99195.69;5040268;28;20105;-75
2021/07/05 02:43:12;;;;;;;9.35;6.05;;;;;;;21.95;52.80;99199.38;5037785;28;20029;-75
2021/07/05 02:45:41;;;;;;;8.70;6.10;;;;;;;21.91;53.42;99198.25;5024638;28;20067;-75
2021/07/05 02:48:16;;;;;;;11.88;6.72;;;;;;;21.91;53.61;99196.38;5028472;28;20223;-75
2021/07/05 02:50:47;;;;;;;8.25;6.63;;;;;;;21.84;53.68;99197.59;5038495;28;20033;-75
2021/07/05 02:53:14;;;;;;;9.73;6.80;;;;;;;21.76;53.46;99181.84;5033123;28;20030;-75
2021/07/05 02:55:40;;;;;;;10.70;7.07;;;;;;;21.66;54.08;99191.41;5033590;28;20083;-75
2021/07/05 02:58:06;;;;;;;8.38;6.72;;;;;;;21.58;53.69;99180.25;5027241;28;20033;-75
2021/07/05 03:00:34;;;;;;;10.73;6.53;;;;;;;21.76;53.12;99190.72;5035794;28;20020;-75
2021/07/05 03:03:00;;;;;;;10.45;7.13;;;;;;;21.81;53.34;99192.69;5033662;28;20254;-75
2021/07/05 03:05:28;;;;;;;11.35;6.57;;;;;;;21.90;52.89;99191.22;5031805;28;20346;-73
2021/07/05 03:07:53;;;;;;;8.30;6.35;;;;;;;21.68;53.32;99210.84;5035604;28;20131;-73
2021/07/05 03:10:29;;;;;;;10.13;6.78;;;;;;;21.68;53.59;99213.53;5046561;28;20358;-73
2021/07/05 03:12:56;;;;;;;10.15;6.70;;;;;;;21.69;53.43;99214.34;5059762;28;20311;-74
2021/07/05 03:15:22;;;;;;;11.10;6.65;;;;;;;21.63;53.43;99202.69;5025696;28;20037;-75
2021/07/05 03:17:47;;;;;;;14.70;7.43;;;;;;;21.58;54.73;99204.47;5032349;28;20058;-75
2021/07/05 03:20:17;;;;;;;10.70;6.57;;;;;;;21.53;56.56;99207.91;5035834;28;20085;-75
2021/07/05 03:22:44;;;;;;;12.05;7.55;;;;;;;21.36;56.96;99199.03;5036932;28;20051;-75
2021/07/05 03:25:11;;;;;;;18.13;7.57;;;;;;;21.37;57.11;99210.63;5032280;28;20061;-75
2021/07/05 03:27:37;;;;;;;10.30;6.90;;;;;;;21.26;57.33;99197.00;5039986;28;20033;-75
2021/07/05 03:30:06;;;;;;;10.88;6.78;;;;;;;21.45;57.29;99218.28;5040987;28;20266;-75
2021/07/05 03:32:33;;;;;;;20.48;7.75;;;;;;;21.51;56.74;99211.91;5037477;28;20199;-75
2021/07/05 03:34:58;;;;;;;10.38;7.40;;;;;;;21.59;56.56;99216.88;5035863;28;20026;-75
2021/07/05 03:37:23;;;;;;;13.13;7.07;;;;;;;21.56;56.26;99220.88;5029946;28;20252;-75
2021/07/05 03:39:49;;;;;;;12.02;6.80;;;;;;;21.55;54.79;99205.78;5041121;28;20033;-75
2021/07/05 03:42:14;;;;;;;13.52;7.10;;;;;;;21.65;54.21;99208.63;5038542;28;20033;-75
2021/07/05 03:44:40;;;;;;;11.23;6.63;;;;;;;21.72;53.96;99210.34;5033777;28;20034;-75
2021/07/05 03:47:05;;;;;;;10.70;6.80;;;;;;;21.88;53.37;99210.34;5038975;28;20045;-75
2021/07/05 03:49:31;;;;;;;10.82;6.78;;;;;;;21.88;53.18;99209.53;5031977;28;20048;-75
2021/07/05 03:51:57;;;;;;;13.65;6.63;;;;;;;21.88;52.90;99202.25;5046637;28;20349;-76
2021/07/05 03:54:22;;;;;;;12.13;6.25;;;;;;;22.08;52.37;99215.22;5034759;28;20021;-75
2021/07/05 03:56:47;;;;;;;8.85;6.15;;;;;;;22.23;51.55;99212.72;5033570;28;20041;-75
2021/07/05 03:59:13;;;;;;;10.85;6.55;;;;;;;22.11;51.52;99203.13;5033255;28;20280;-75
2021/07/05 04:01:39;;;;;;;14.23;6.40;;;;;;;21.94;52.53;99214.75;5040422;28;20037;-73
2021/07/05 04:04:05;;;;;;;13.73;6.10;;;;;;;22.01;52.09;99205.66;5047119;28;20045;-74
2021/07/05 04:06:30;;;;;;;11.55;6.32;;;;;;;22.20;52.13;99205.13;5040785;28;20044;-74
2021/07/05 04:08:58;;;;;;;11.90;6.55;;;;;;;22.23;52.25;99206.50;5042790;28;20029;-74
2021/07/05 04:11:23;;;;;;;17.92;7.03;;;;;;;22.37;51.92;99196.16;5037266;28;20033;-75
2021/07/05 04:13:49;;;;;;;8.45;6.05;;;;;;;22.44;51.64;99199.47;5034021;28;20026;-75
2021/07/05 04:16:15;;;;;;;11.80;6.78;;;;;;;22.43;51.79;99190.56;5039809;28;20053;-75
2021/07/05 04:18:41;;;;;;;10.50;6.60;;;;;;;22.51;51.53;99198.22;5034614;28;20030;-75
2021/07/05 04:21:06;;;;;;;10.07;6.20;;;;;;;22.58;51.47;99192.63;5035600;28;20549;-75
2021/07/05 04:23:33;;;;;;;11.05;6.50;;;;;;;22.76;51.22;99180.66;5037973;28;20056;-75
2021/07/05 04:25:59;;;;;;;16.08;6.72;;;;;;;22.97;50.75;99181.72;5041250;28;20033;-75
2021/07/05 04:28:25;;;;;;;10.73;6.93;;;;;;;23.00;50.87;99187.44;5032468;28;20184;-75
2021/07/05 04:30:51;;;;;;;14.35;6.57;;;;;;;23.21;50.25;99181.13;5037010;28;20042;-76
2021/07/05 04:33:17;;;;;;;12.88;6.35;;;;;;;23.48;49.79;99161.31;5044421;28;20244;-75
2021/07/05 04:35:42;;;;;;;14.43;6.05;;;;;;;23.79;49.25;99175.88;5049221;28;20041;-75
2021/07/05 04:38:08;;;;;;;17.83;6.63;;;;;;;24.00;48.74;99172.22;5049901;28;20079;-76
2021/07/05 04:40:36;;;;;;;19.15;6.50;;;;;;;24.20;48.35;99166.91;5052648;28;20036;-76
2021/07/05 04:43:03;;;;;;;12.70;6.10;;;;;;;24.40;48.25;99168.06;5038362;28;20044;-75
2021/07/05 04:45:29;;;;;;;12.23;6.22;;;;;;;24.69;47.51;99174.66;5039200;28;20033;-75
2021/07/05 04:47:57;;;;;;;14.45;5.63;;;;;;;24.90;47.14;99174.66;5042064;28;20044;-75
2021/07/05 04:50:23;;;;;;;8.30;5.93;;;;;;;24.99;46.91;99173.94;5044510;28;20025;-73
2021/07/05 04:52:48;;;;;;;16.08;5.95;;;;;;;25.31;45.82;99170.13;5042971;28;20242;-73
2021/07/05 04:55:17;;;;;;;7.88;5.07;;;;;;;25.48;44.33;99170.66;5044280;28;20346;-73
2021/07/05 04:57:43;;;;;;;7.97;5.03;;;;;;;25.63;42.72;99162.50;5044597;28;20198;-73
2021/07/05 05:00:13;;;;;;;14.23;5.50;;;;;;;25.61;42.90;99169.28;5044437;28;20059;-73
2021/07/05 05:02:39;;;;;;;6.55;5.07;;;;;;;26.05;41.86;99159.44;5039627;28;20327;-75
2021/07/05 05:05:06;;;;;;;6.03;5.10;;;;;;;26.53;40.62;99172.53;5043848;28;20057;-75
2021/07/05 05:07:32;;;;;;;10.48;4.95;;;;;;;26.83;40.16;99172.34;5044201;28;20033;-76
2021/07/05 05:10:01;;;;;;;10.20;5.30;;;;;;;27.16;39.62;99173.50;5044004;28;20044;-75
2021/07/05 05:12:27;;;;;;;9.32;5.07;;;;;;;27.23;38.91;99170.47;5044250;28;20024;-75
2021/07/05 05:14:53;;;;;;;10.88;5.28;;;;;;;27.46;39.19;99175.16;5043630;28;20384;-75
2021/07/05 05:17:18;;;;;;;9.48;5.20;;;;;;;27.56;37.93;99174.25;5043036;28;20021;-76
2021/07/05 05:19:44;;;;;;;7.03;4.60;;;;;;;27.28;38.82;99168.50;5043697;28;20037;-75
2021/07/05 05:22:09;;;;;;;8.93;5.03;;;;;;;27.69;37.53;99178.22;5043918;28;20037;-75
2021/07/05 05:24:35;;;;;;;6.63;4.90;;;;;;;27.74;37.14;99176.25;5043584;28;20307;-75
2021/07/05 05:27:00;;;;;;;8.95;5.43;;;;;;;27.86;37.15;99167.69;5043706;28;20212;-75
2021/07/05 05:29:26;;;;;;;10.23;5.22;;;;;;;28.15;36.77;99171.19;5044102;28;20344;-75
2021/07/05 05:31:51;;;;;;;9.55;4.82;;;;;;;28.52;35.92;99165.00;5044040;28;20093;-75
2021/07/05 05:34:17;;;;;;;9.10;4.97;;;;;;;28.75;36.01;99163.31;5042685;28;20234;-75
2021/07/05 05:36:42;;;;;;;5.63;4.78;;;;;;;29.17;35.46;99167.88;5028423;28;20040;-73
2021/07/05 05:39:08;;;;;;;8.23;5.28;;;;;;;29.07;34.88;99162.56;5037947;28;20040;-73
2021/07/05 05:41:34;;;;;;;9.30;4.57;;;;;;;29.39;34.22;99164.50;5026209;28;20067;-73
2021/07/05 05:44:00;;;;;;;9.43;4.55;;;;;;;29.55;33.52;99138.59;5041460;28;20254;-73
2021/07/05 05:46:32;;;;;;;6.85;4.40;;;;;;;29.84;33.31;99153.88;5026131;28;20382;-73
2021/07/05 05:48:59;;;;;;;10.85;5.00;;;;;;;30.15;32.17;99162.28;5034587;28;20057;-76
2021/07/05 05:51:30;;;;;;;8.00;4.40;;;;;;;29.78;32.18;99166.00;5065441;28;20036;-75
2021/07/05 05:53:56;;;;;;;5.50;4.70;;;;;;;30.18;31.90;99156.25;5033645;28;20036;-75
2021/07/05 05:56:21;;;;;;;10.02;4.18;;;;;;;29.95;31.58;99155.28;5040033;28;20030;-76
2021/07/05 05:58:47;;;;;;;7.50;4.30;;;;;;;30.21;32.25;99149.38;5029935;28;20040;-75
2021/07/05 06:01:13;;;;;;;6.97;4.22;;;;;;;30.57;30.82;99131.06;5035412;28;20137;-75
2021/07/05 06:03:38;;;;;;;5.80;4.90;;;;;;;30.65;31.01;99141.28;5031230;28;20042;-75
2021/07/05 06:06:03;;;;;;;7.75;4.63;;;;;;;30.15;30.72;99145.91;5032928;28;20037;-75
2021/07/05 06:08:29;;;;;;;6.60;4.68;;;;;;;30.45;31.24;99153.47;5040086;28;20196;-75
2021/07/05 06:10:54;;;;;;;7.95;4.70;;;;;;;30.52;30.36;99150.31;5031290;28;20341;-75
2021/07/05 06:13:20;;;;;;;8.60;4.82;;;;;;;30.81;30.13;99150.75;5033713;28;20025;-76
2021/07/05 06:15:45;;;;;;;6.05;4.50;;;;;;;30.64;29.92;99147.88;5033346;28;20071;-76
2021/07/05 06:18:11;;;;;;;7.30;4.30;;;;;;;30.44;30.04;99151.03;5037780;28;20326;-74
2021/07/05 06:20:36;;;;;;;4.55;4.00;;;;;;;30.11;30.42;99136.69;5031635;28;20197;-74
2021/07/05 06:23:03;;;;;;;8.95;5.05;;;;;;;30.69;29.96;99146.94;5033274;28;20038;-74
2021/07/05 06:25:29;;;;;;;7.63;4.63;;;;;;;30.75;30.23;99151.19;5030152;28;20034;-74
2021/07/05 06:27:54;;;;;;;7.75;4.38;;;;;;;30.93;29.86;99136.53;5032236;28;20075;-74
2021/07/05 06:30:20;;;;;;;11.30;4.32;;;;;;;31.31;29.75;99138.91;5035708;28;20040;-76
2021/07/05 06:32:45;;;;;;;7.35;4.22;;;;;;;31.20;28.98;99135.59;5039318;28;20025;-77
2021/07/05 06:35:12;;;;;;;7.75;4.22;;;;;;;31.04;29.97;99137.06;5043319;28;20036;-76
2021/07/05 06:37:38;;;;;;;5.78;4.15;;;;;;;31.62;29.05;99131.50;5034778;28;20041;-76
2021/07/05 06:40:05;;;;;;;8.48;4.15;;;;;;;31.55;29.01;99122.94;5036132;28;20213;-76
2021/07/05 06:42:31;;;;;;;6.28;4.75;;;;;;;31.91;28.99;99121.97;5029737;28;20046;-76
2021/07/05 06:44:56;;;;;;;9.50;4.07;;;;;;;32.72;27.56;99105.84;5035191;28;20036;-76
2021/07/05 06:47:22;;;;;;;7.25;4.55;;;;;;;32.22;28.06;99122.69;5036260;28;20339;-76
2021/07/05 06:49:47;;;;;;;4.53;3.60;;;;;;;32.83;26.82;99125.53;5036470;28;20319;-76
2021/07/05 06:52:13;;;;;;;8.02;4.07;;;;;;;33.14;26.11;99117.09;5033956;28;20259;-76
2021/07/05 06:54:39;;;;;;;6.45;4.30;;;;;;;33.06;27.44;99124.22;5033841;28;20034;-76
2021/07/05 06:57:05;;;;;;;9.02;3.80;;;;;;;33.22;26.54;99113.53;5034868;28;20056;-76
2021/07/05 06:59:31;;;;;;;4.65;4.05;;;;;;;33.17;26.67;99111.75;5029601;28;20030;-73
2021/07/05 07:01:56;;;;;;;8.20;3.97;;;;;;;33.32;26.68;99102.25;5031332;28;20037;-74
2021/07/05 07:04:21;;;;;;;8.45;4.82;;;;;;;33.61;25.93;99101.50;5028733;28;20057;-74
2021/07/05 07:06:50;;;;;;;4.53;4.13;;;;;;;33.67;26.14;99097.44;5034167;28;20327;-74
2021/07/05 07:09:17;;;;;;;6.30;3.78;;;;;;;33.28;27.66;99098.50;5034681;28;20036;-76
2021/07/05 07:11:42;;;;;;;8.60;4.20;;;;;;;32.87;26.83;99096.34;5031432;28;20061;-75
2021/07/05 07:14:08;;;;;;;5.57;4.05;;;;;;;32.96;26.92;99091.66;5039171;28;20160;-76
2021/07/05 07:16:39;;;;;;;8.77;4.32;;;;;;;33.25;26.84;99093.66;5025667;28;20044;-76
2021/07/05 07:19:17;;;;;;;7.63;4.05;;;;;;;33.89;25.53;99069.72;5033713;28;20301;-76
2021/07/05 07:21:50;;;;;;;6.80;3.72;;;;;;;34.17;26.03;99081.00;5035188;28;20056;-77
2021/07/05 07:24:17;;;;;;;9.00;4.30;;;;;;;33.50;25.65;99048.09;5036627;28;20053;-76
2021/07/05 07:26:43;;;;;;;7.85;4.40;;;;;;;33.55;26.59;99067.94;5032739;28;20576;-76
2021/07/05 07:29:08;;;;;;;6.10;4.35;;;;;;;34.12;26.60;99070.22;5035505;28;20061;-76
2021/07/05 07:31:34;;;;;;;7.85;3.97;;;;;;;34.50;24.85;99064.63;5037834;28;20061;-77
2021/07/05 07:34:00;;;;;;;8.23;4.47;;;;;;;34.93;24.64;99079.13;5036094;28;20039;-77
2021/07/05 07:36:26;;;;;;;4.05;3.55;;;;;;;35.39;23.71;99067.03;5039540;28;20055;-76
2021/07/05 07:38:55;;;;;;;9.02;3.85;;;;;;;35.51;24.24;99059.56;5037485;28;20072;-74
2021/07/05 07:41:22;;;;;;;10.52;4.03;;;;;;;35.68;23.73;99069.56;5035522;28;20358;-74
2021/07/05 07:43:48;;;;;;;10.23;4.43;;;;;;;35.20;24.44;99059.25;5037102;28;20307;-74
2021/07/05 07:46:14;;;;;;;9.63;4.38;;;;;;;35.43;24.92;99062.44;5049550;28;20224;-74
2021/07/05 07:48:40;;;;;;;6.55;4.10;;;;;;;35.39;24.19;99067.03;5036156;28;20096;-76
2021/07/05 07:51:06;;;;;;;13.88;4.40;;;;;;;35.29;23.54;99059.16;5037492;28;20034;-76
2021/07/05 07:53:31;;;;;;;5.95;3.97;;;;;;;35.68;23.10;99057.72;5032979;28;20029;-76
2021/07/05 07:55:58;;;;;;;6.05;4.35;;;;;;;35.61;23.49;99044.53;5036706;28;20041;-76
2021/07/05 07:58:24;;;;;;;6.95;4.22;;;;;;;35.57;22.93;99057.38;5037228;28;20092;-76
2021/07/05 08:00:50;;;;;;;4.85;3.60;;;;;;;35.63;23.20;99057.97;5036030;28;20449;-76
2021/07/05 08:03:15;;;;;;;5.03;3.53;;;;;;;35.73;22.71;99058.28;5037449;28;20030;-76
2021/07/05 08:05:41;;;;;;;8.45;3.80;;;;;;;35.25;23.47;99053.53;5033908;28;20041;-76
2021/07/05 08:08:08;;;;;;;8.18;4.10;;;;;;;35.89;23.20;99055.66;5038209;28;20311;-76
2021/07/05 08:10:33;;;;;;;5.97;3.85;;;;;;;35.94;22.14;99049.94;5033935;28;20037;-76
2021/07/05 08:13:02;;;;;;;4.38;3.08;;;;;;;35.82;21.17;99044.44;5036565;28;20029;-76
2021/07/05 08:15:29;;;;;;;6.03;3.85;;;;;;;35.91;21.56;99030.53;5036161;28;20040;-77
2021/07/05 08:17:55;;;;;;;7.40;3.33;;;;;;;36.12;20.89;99034.72;5039477;28;20033;-75
2021/07/05 08:20:21;;;;;;;8.50;3.90;;;;;;;35.99;20.90;99035.91;5042617;28;20220;-74
2021/07/05 08:22:53;;;;;;;8.20;4.30;;;;;;;36.21;21.45;99023.56;5040650;28;20018;-74
2021/07/05 08:25:21;;;;;;;5.20;3.00;;;;;;;36.37;20.76;99027.22;5041652;28;20144;-74
2021/07/05 08:27:47;;;;;;;4.95;4.22;;;;;;;36.05;21.43;99028.19;5044183;28;20049;-74
2021/07/05 08:30:12;;;;;;;6.30;3.65;;;;;;;36.25;21.48;99024.47;5044312;28;20361;-76
2021/07/05 08:32:38;;;;;;;9.07;3.85;;;;;;;36.55;20.88;99024.97;5044448;28;20071;-76
2021/07/05 08:35:06;;;;;;;6.82;3.55;;;;;;;36.38;20.66;99028.81;5044376;28;20040;-76
2021/07/05 08:37:32;;;;;;;4.63;3.80;;;;;;;36.38;20.07;99025.25;5044879;28;20048;-76
2021/07/05 08:39:57;;;;;;;5.45;3.90;;;;;;;36.14;20.11;99009.56;5043329;28;20021;-75
2021/07/05 08:42:26;;;;;;;5.47;3.90;;;;;;;36.10;21.17;99016.94;5043260;28;20259;-76
2021/07/05 08:44:52;;;;;;;4.55;4.15;;;;;;;36.61;20.25;99023.56;5044633;28;20040;-76
2021/07/05 08:47:19;;;;;;;5.90;4.10;;;;;;;36.61;19.43;99012.53;5044309;28;20039;-76
2021/07/05 08:49:48;;;;;;;9.13;4.47;;;;;;;36.42;20.34;99020.66;5044722;28;20072;-76
2021/07/05 08:52:14;;;;;;;10.45;4.32;;;;;;;36.57;20.24;99021.88;5043034;28;20025;-76
2021/07/05 08:54:40;;;;;;;5.35;4.85;;;;;;;36.74;19.96;99025.09;5043929;28;20029;-76
2021/07/05 08:57:06;;;;;;;6.80;4.18;;;;;;;36.49;20.39;99017.31;5044110;28;20049;-76
2021/07/05 08:59:32;;;;;;;5.40;3.97;;;;;;;36.81;19.29;99016.25;5044289;28;20040;-74
2021/07/05 09:01:58;;;;;;;6.45;4.30;;;;;;;37.10;19.73;99017.78;5044270;28;20079;-74
2021/07/05 09:04:23;;;;;;;5.80;4.22;;;;;;;37.20;19.39;98992.41;5042245;28;20037;-74
2021/07/05 09:07:07;;;;;;;7.22;4.47;;;;;;;37.02;19.77;99000.25;5036385;28;20288;-74
2021/07/05 09:09:35;;;;;;;5.88;4.25;;;;;;;36.60;19.77;98988.06;5039133;28;20025;-76
2021/07/05 09:12:08;;;;;;;6.18;4.10;;;;;;;37.25;19.70;98994.13;5034610;28;20040;-76
2021/07/05 09:14:34;;;;;;;6.43;4.50;;;;;;;37.01;20.10;98986.81;5040411;28;20041;-76
2021/07/05 09:17:08;;;;;;;5.45;4.32;;;;;;;36.98;19.42;98979.25;5034725;28;20041;-76
2021/07/05 09:19:34;;;;;;;5.65;4.50;;;;;;;37.01;19.35;98986.81;5037160;28;20029;-76
2021/07/05 09:22:05;;;;;;;4.78;4.30;;;;;;;37.31;18.97;98981.66;5035748;28;20040;-76
2021/07/05 09:24:36;;;;;;;9.68;4.68;;;;;;;37.06;19.46;98984.59;5040450;28;20092;-75
2021/07/05 09:27:11;;;;;;;6.43;4.05;;;;;;;37.22;19.38;98986.53;5035813;28;20052;-76
2021/07/05 09:29:39;;;;;;;5.53;3.67;;;;;;;36.94;18.47;98979.16;5034524;28;20053;-75
2021/07/05 09:32:07;;;;;;;6.15;4.10;;;;;;;36.76;18.73;98969.63;5071255;28;20033;-75
2021/07/05 09:34:38;;;;;;;5.47;4.15;;;;;;;36.65;19.77;98974.03;5037666;28;20037;-76
2021/07/05 09:37:20;;;;;;;7.13;3.83;;;;;;;36.45;19.23;98951.84;5034802;28;20342;-75
2021/07/05 09:40:01;;;;;;;7.38;4.00;;;;;;;36.49;19.40;98967.69;5036668;28;20047;-76
2021/07/05 09:42:28;;;;;;;10.00;3.53;;;;;;;36.36;20.22;98956.69;5035349;28;20071;-74
2021/07/05 09:44:55;;;;;;;4.97;3.28;;;;;;;36.02;18.52;98952.56;5040564;28;20044;-74
2021/07/05 09:47:24;;;;;;;5.18;3.92;;;;;;;35.95;19.84;98962.56;5036449;28;20033;-74
2021/07/05 09:49:51;;;;;;;7.13;3.97;;;;;;;36.25;19.66;98955.56;5036080;28;20060;-74
2021/07/05 09:52:27;;;;;;;3.97;3.55;;;;;;;36.28;19.62;98963.16;5037669;28;20124;-74
2021/07/05 09:54:56;;;;;;;3.80;3.20;;;;;;;35.99;18.49;98955.19;5034209;28;20076;-76
2021/07/05 09:57:25;;;;;;;3.80;3.30;;;;;;;35.69;20.25;98952.72;5031703;28;20048;-76
2021/07/05 10:00:15;;;;;;;5.05;3.63;;;;;;;35.03;20.16;98932.91;5037344;28;20049;-76
2021/07/05 10:03:11;;;;;;;3.83;3.45;;;;;;;34.40;20.46;98921.31;5040174;28;20040;-76
2021/07/05 10:05:44;;;;;;;6.13;3.90;;;;;;;34.38;22.34;98945.59;5036138;28;20350;-76
2021/07/05 10:08:12;;;;;;;5.63;3.70;;;;;;;34.40;21.02;98940.56;5037510;28;20033;-75
2021/07/05 10:10:40;;;;;;;4.90;3.25;;;;;;;34.40;21.00;98935.06;5034991;28;20036;-76
2021/07/05 10:13:08;;;;;;;5.28;2.88;;;;;;;34.33;20.98;98940.28;5035671;28;20036;-76
2021/07/05 10:15:35;;;;;;;5.10;3.75;;;;;;;34.31;21.52;98931.53;5035619;28;20083;-76
2021/07/05 10:18:02;;;;;;;24.30;7.20;;;;;;;34.39;22.60;98933.47;5036006;28;20037;-76
2021/07/05 10:20:33;;;;;;;18.02;6.38;;;;;;;34.31;22.80;98928.78;5039363;28;20343;-76
2021/07/05 10:23:01;;;;;;;28.58;7.93;;;;;;;34.38;22.70;98926.34;5035937;28;20030;-76
2021/07/05 10:25:29;;;;;;;7.50;3.97;;;;;;;34.50;22.51;98921.69;5036035;28;20040;-76
2021/07/05 10:27:55;;;;;;;5.97;3.17;;;;;;;34.37;21.39;98922.81;5034646;28;20264;-74
2021/07/05 10:30:22;;;;;;;4.88;3.55;;;;;;;34.52;21.22;98929.59;5037124;28;20098;-74
2021/07/05 10:32:48;;;;;;;18.95;5.55;;;;;;;33.98;21.24;98918.59;5036943;28;20318;-74
2021/07/05 10:35:16;;;;;;;3.67;3.38;;;;;;;33.95;21.43;98911.84;5036400;28;20263;-74
2021/07/05 10:37:54;;;;;;;4.57;3.08;;;;;;;33.84;21.23;98907.91;5036955;28;20025;-76
2021/07/05 10:40:25;;;;;;;4.82;3.10;;;;;;;33.39;21.60;98912.41;5037362;28;20037;-75
2021/07/05 10:42:57;;;;;;;7.57;3.30;;;;;;;33.39;23.16;98902.22;5034946;28;20108;-76
2021/07/05 10:45:37;;;;;;;4.43;3.45;;;;;;;33.33;22.69;98902.75;5064262;28;20033;-76
2021/07/05 10:48:03;;;;;;;5.25;3.70;;;;;;;33.43;24.30;98889.44;5066995;28;20071;-76
2021/07/05 10:50:37;;;;;;;5.65;3.50;;;;;;;33.90;23.08;98908.50;5036074;28;20045;-76
2021/07/05 10:53:04;;;;;;;4.25;3.22;;;;;;;34.07;22.38;98911.09;5035488;28;20022;-76
2021/07/05 10:55:35;;;;;;;4.75;2.92;;;;;;;33.75;22.38;98898.09;5032370;28;20115;-76
2021/07/05 10:58:01;;;;;;;6.75;3.40;;;;;;;33.98;21.65;98893.88;5038257;28;20033;-76
2021/07/05 11:00:40;;;;;;;3.63;2.92;;;;;;;34.06;23.06;98886.69;5034931;28;20068;-76
2021/07/05 11:03:06;;;;;;;4.63;3.30;;;;;;;34.07;23.46;98902.84;5035029;28;20037;-76
2021/07/05 11:05:45;;;;;;;3.75;3.30;;;;;;;33.98;23.58;98899.38;5037344;28;20041;-77
2021/07/05 11:08:34;;;;;;;5.20;3.30;;;;;;;34.26;23.17;98892.13;5041211;28;20052;-74
2021/07/05 11:11:29;;;;;;;7.18;3.40;;;;;;;34.53;22.36;98884.47;5037826;28;20029;-74
2021/07/05 11:14:20;;;;;;;8.38;3.38;;;;;;;34.41;22.23;98882.50;5040503;28;20049;-74
2021/07/05 11:16:54;;;;;;;4.70;3.60;;;;;;;34.55;23.54;98877.50;5040944;28;20049;-74
2021/07/05 11:19:33;;;;;;;6.50;2.70;;;;;;;34.74;23.42;98874.19;5038165;28;20026;-76
2021/07/05 11:22:04;;;;;;;2.90;2.45;;;;;;;34.71;23.36;98879.56;5040940;28;20319;-76
2021/07/05 11:24:40;;;;;;;5.97;2.90;;;;;;;34.58;22.75;98870.50;5039183;28;20029;-76
2021/07/05 11:27:24;;;;;;;3.90;2.75;;;;;;;34.53;22.15;98876.22;5039131;28;20112;-76
2021/07/05 11:29:49;;;;;;;;;;;;;;;34.43;22.97;98874.72;5039841;28;20036;-76
2021/07/05 11:32:36;;;;;;;7.43;2.92;;;;;;;34.40;23.15;98877.34;5039959;28;19976;-76
2021/07/05 11:35:03;;;;;;;5.75;2.97;;;;;;;34.38;22.37;98858.44;5039216;28;20137;-76